sensor_id;sensor_type;location;lat;lon;timestamp;P1;durP1;ratioP1;P2;durP2;ratioP2
34060;SDS011;20336;-33.424;-70.638;2023-02-23T00:00:17;49.55;;;11.68;;
34060;SDS011;20336;-33.424;-70.638;2023-02-23T00:02:52;43.08;;;11.60;;
34060;SDS011;20336;-33.424;-70.638;2023-02-23T00:05:20;29.23;;;10.30;;
34060;SDS011;20336;-33.424;-70.638;2023-02-23T00:07:47;31.60;;;11.20;;
34060;SDS011;20336;-33.424;-70.638;2023-02-23T00:10:16;27.48;;;9.23;;
34060;SDS011;20336;-33.424;-70.638;2023-02-23T00:12:46;22.30;;;9.23;;
34060;SDS011;20336;-33.424;-70.638;2023-02-23T00:15:16;23.35;;;9.15;;
34060;SDS011;20336;-33.424;-70.638;2023-02-23T00:17:43;25.40;;;9.63;;
34060;SDS011;20336;-33.424;-70.638;2023-02-23T00:20:12;21.70;;;9.70;;
34060;SDS011;20336;-33.424;-70.638;2023-02-23T00:22:41;22.25;;;9.40;;
34060;SDS011;20336;-33.424;-70.638;2023-02-23T00:25:08;16.88;;;8.27;;
34060;SDS011;20336;-33.424;-70.638;2023-02-23T00:27:36;20.15;;;9.02;;
34060;SDS011;20336;-33.424;-70.638;2023-02-23T00:30:09;20.05;;;8.57;;
34060;SDS011;20336;-33.424;-70.638;2023-02-23T00:32:37;20.45;;;9.13;;
34060;SDS011;20336;-33.424;-70.638;2023-02-23T00:35:04;20.08;;;9.07;;
34060;SDS011;20336;-33.424;-70.638;2023-02-23T00:37:45;18.95;;;8.25;;
34060;SDS011;20336;-33.424;-70.638;2023-02-23T00:40:15;26.10;;;9.00;;
34060;SDS011;20336;-33.424;-70.638;2023-02-23T00:42:43;21.63;;;9.48;;
34060;SDS011;20336;-33.424;-70.638;2023-02-23T00:45:13;17.38;;;8.57;;
34060;SDS011;20336;-33.424;-70.638;2023-02-23T00:47:41;21.40;;;8.57;;
34060;SDS011;20336;-33.424;-70.638;2023-02-23T00:50:11;15.57;;;8.25;;
34060;SDS011;20336;-33.424;-70.638;2023-02-23T00:52:41;19.08;;;8.30;;
34060;SDS011;20336;-33.424;-70.638;2023-02-23T00:55:12;21.33;;;8.98;;
34060;SDS011;20336;-33.424;-70.638;2023-02-23T00:57:39;18.08;;;9.07;;
34060;SDS011;20336;-33.424;-70.638;2023-02-23T01:00:08;20.48;;;8.45;;
34060;SDS011;20336;-33.424;-70.638;2023-02-23T01:02:44;16.95;;;8.65;;
34060;SDS011;20336;-33.424;-70.638;2023-02-23T01:05:14;16.42;;;8.93;;
34060;SDS011;20336;-33.424;-70.638;2023-02-23T01:07:41;21.48;;;9.00;;
34060;SDS011;20336;-33.424;-70.638;2023-02-23T01:10:11;17.55;;;8.52;;
34060;SDS011;20336;-33.424;-70.638;2023-02-23T01:12:45;18.02;;;8.10;;
34060;SDS011;20336;-33.424;-70.638;2023-02-23T01:15:13;19.58;;;8.98;;
34060;SDS011;20336;-33.424;-70.638;2023-02-23T01:17:41;17.60;;;8.20;;
34060;SDS011;20336;-33.424;-70.638;2023-02-23T01:20:12;17.25;;;8.90;;
34060;SDS011;20336;-33.424;-70.638;2023-02-23T01:22:47;18.50;;;9.35;;
34060;SDS011;20336;-33.424;-70.638;2023-02-23T01:25:16;16.77;;;8.88;;
34060;SDS011;20336;-33.424;-70.638;2023-02-23T01:27:43;18.17;;;8.15;;
34060;SDS011;20336;-33.424;-70.638;2023-02-23T01:30:12;16.52;;;8.68;;
34060;SDS011;20336;-33.424;-70.638;2023-02-23T01:32:39;18.98;;;8.73;;
34060;SDS011;20336;-33.424;-70.638;2023-02-23T01:35:07;18.98;;;8.93;;
34060;SDS011;20336;-33.424;-70.638;2023-02-23T01:37:38;17.58;;;8.80;;
34060;SDS011;20336;-33.424;-70.638;2023-02-23T01:40:17;18.45;;;8.30;;
34060;SDS011;20336;-33.424;-70.638;2023-02-23T01:42:56;15.00;;;8.82;;
34060;SDS011;20336;-33.424;-70.638;2023-02-23T01:45:49;17.05;;;8.02;;
34060;SDS011;20336;-33.424;-70.638;2023-02-23T01:48:20;21.08;;;9.38;;
34060;SDS011;20336;-33.424;-70.638;2023-02-23T01:54:01;15.57;;;9.23;;
34060;SDS011;20336;-33.424;-70.638;2023-02-23T01:56:35;17.27;;;8.50;;
34060;SDS011;20336;-33.424;-70.638;2023-02-23T01:59:07;16.98;;;9.07;;
34060;SDS011;20336;-33.424;-70.638;2023-02-23T02:01:39;17.92;;;8.80;;
34060;SDS011;20336;-33.424;-70.638;2023-02-23T02:04:08;15.70;;;8.57;;
34060;SDS011;20336;-33.424;-70.638;2023-02-23T02:06:40;20.77;;;9.90;;
34060;SDS011;20336;-33.424;-70.638;2023-02-23T02:09:12;14.40;;;8.55;;
34060;SDS011;20336;-33.424;-70.638;2023-02-23T02:11:41;22.20;;;8.75;;
34060;SDS011;20336;-33.424;-70.638;2023-02-23T02:14:12;19.10;;;8.30;;
34060;SDS011;20336;-33.424;-70.638;2023-02-23T02:22:28;19.73;;;8.73;;
34060;SDS011;20336;-33.424;-70.638;2023-02-23T02:36:20;15.52;;;8.05;;
34060;SDS011;20336;-33.424;-70.638;2023-02-23T02:47:21;17.40;;;9.07;;
34060;SDS011;20336;-33.424;-70.638;2023-02-23T02:52:47;18.08;;;8.40;;
34060;SDS011;20336;-33.424;-70.638;2023-02-23T02:55:21;20.45;;;9.05;;
34060;SDS011;20336;-33.424;-70.638;2023-02-23T02:57:55;17.95;;;8.73;;
34060;SDS011;20336;-33.424;-70.638;2023-02-23T03:00:30;14.80;;;8.10;;
34060;SDS011;20336;-33.424;-70.638;2023-02-23T03:06:26;14.88;;;8.32;;
34060;SDS011;20336;-33.424;-70.638;2023-02-23T03:09:29;19.13;;;9.10;;
34060;SDS011;20336;-33.424;-70.638;2023-02-23T03:12:28;15.65;;;8.57;;
34060;SDS011;20336;-33.424;-70.638;2023-02-23T03:15:43;16.63;;;8.35;;
34060;SDS011;20336;-33.424;-70.638;2023-02-23T03:21:48;17.27;;;9.13;;
34060;SDS011;20336;-33.424;-70.638;2023-02-23T03:24:53;17.38;;;9.65;;
34060;SDS011;20336;-33.424;-70.638;2023-02-23T03:28:23;18.63;;;8.55;;
34060;SDS011;20336;-33.424;-70.638;2023-02-23T03:34:11;19.77;;;9.38;;
34060;SDS011;20336;-33.424;-70.638;2023-02-23T03:37:41;20.92;;;9.10;;
34060;SDS011;20336;-33.424;-70.638;2023-02-23T03:40:56;17.92;;;8.65;;
34060;SDS011;20336;-33.424;-70.638;2023-02-23T03:43:47;18.45;;;9.32;;
34060;SDS011;20336;-33.424;-70.638;2023-02-23T03:46:39;19.65;;;8.75;;
34060;SDS011;20336;-33.424;-70.638;2023-02-23T03:49:26;18.50;;;9.63;;
34060;SDS011;20336;-33.424;-70.638;2023-02-23T03:52:18;18.73;;;8.65;;
34060;SDS011;20336;-33.424;-70.638;2023-02-23T03:55:08;16.33;;;8.88;;
34060;SDS011;20336;-33.424;-70.638;2023-02-23T03:58:04;19.63;;;9.38;;
34060;SDS011;20336;-33.424;-70.638;2023-02-23T04:00:52;18.70;;;9.05;;
34060;SDS011;20336;-33.424;-70.638;2023-02-23T04:03:41;15.20;;;9.25;;
34060;SDS011;20336;-33.424;-70.638;2023-02-23T04:06:31;16.02;;;8.90;;
34060;SDS011;20336;-33.424;-70.638;2023-02-23T04:09:20;17.70;;;9.00;;
34060;SDS011;20336;-33.424;-70.638;2023-02-23T04:15:08;17.50;;;9.38;;
34060;SDS011;20336;-33.424;-70.638;2023-02-23T04:17:39;19.02;;;9.65;;
34060;SDS011;20336;-33.424;-70.638;2023-02-23T04:20:07;16.08;;;9.32;;
34060;SDS011;20336;-33.424;-70.638;2023-02-23T04:22:36;14.73;;;8.63;;
34060;SDS011;20336;-33.424;-70.638;2023-02-23T04:25:03;17.90;;;9.00;;
34060;SDS011;20336;-33.424;-70.638;2023-02-23T04:27:34;22.10;;;9.95;;
34060;SDS011;20336;-33.424;-70.638;2023-02-23T04:30:01;20.10;;;9.32;;
34060;SDS011;20336;-33.424;-70.638;2023-02-23T04:32:28;18.08;;;9.60;;
34060;SDS011;20336;-33.424;-70.638;2023-02-23T04:34:55;20.45;;;9.82;;
34060;SDS011;20336;-33.424;-70.638;2023-02-23T04:37:22;15.68;;;9.65;;
34060;SDS011;20336;-33.424;-70.638;2023-02-23T04:39:49;17.17;;;9.50;;
34060;SDS011;20336;-33.424;-70.638;2023-02-23T04:42:16;15.90;;;8.55;;
34060;SDS011;20336;-33.424;-70.638;2023-02-23T04:44:43;22.17;;;9.85;;
34060;SDS011;20336;-33.424;-70.638;2023-02-23T04:47:11;25.58;;;10.00;;
34060;SDS011;20336;-33.424;-70.638;2023-02-23T04:49:40;22.98;;;9.57;;
34060;SDS011;20336;-33.424;-70.638;2023-02-23T04:52:10;19.80;;;9.38;;
34060;SDS011;20336;-33.424;-70.638;2023-02-23T04:54:37;17.98;;;9.30;;
34060;SDS011;20336;-33.424;-70.638;2023-02-23T04:57:04;24.08;;;9.02;;
34060;SDS011;20336;-33.424;-70.638;2023-02-23T04:59:32;16.42;;;9.43;;
34060;SDS011;20336;-33.424;-70.638;2023-02-23T05:01:59;15.90;;;9.75;;
34060;SDS011;20336;-33.424;-70.638;2023-02-23T05:04:25;25.85;;;9.65;;
34060;SDS011;20336;-33.424;-70.638;2023-02-23T05:06:52;20.95;;;9.88;;
34060;SDS011;20336;-33.424;-70.638;2023-02-23T05:09:19;21.13;;;9.88;;
34060;SDS011;20336;-33.424;-70.638;2023-02-23T05:11:46;24.38;;;9.80;;
34060;SDS011;20336;-33.424;-70.638;2023-02-23T05:14:13;21.08;;;8.95;;
34060;SDS011;20336;-33.424;-70.638;2023-02-23T05:16:40;15.20;;;9.15;;
34060;SDS011;20336;-33.424;-70.638;2023-02-23T05:19:06;22.38;;;9.65;;
34060;SDS011;20336;-33.424;-70.638;2023-02-23T05:21:33;20.08;;;9.05;;
34060;SDS011;20336;-33.424;-70.638;2023-02-23T05:24:00;18.83;;;9.15;;
34060;SDS011;20336;-33.424;-70.638;2023-02-23T05:26:27;20.63;;;9.27;;
34060;SDS011;20336;-33.424;-70.638;2023-02-23T05:28:54;19.60;;;9.90;;
34060;SDS011;20336;-33.424;-70.638;2023-02-23T05:31:22;19.63;;;9.93;;
34060;SDS011;20336;-33.424;-70.638;2023-02-23T05:33:49;27.50;;;10.02;;
34060;SDS011;20336;-33.424;-70.638;2023-02-23T05:36:16;26.05;;;10.25;;
34060;SDS011;20336;-33.424;-70.638;2023-02-23T05:38:45;18.92;;;10.05;;
34060;SDS011;20336;-33.424;-70.638;2023-02-23T05:41:13;19.88;;;9.80;;
34060;SDS011;20336;-33.424;-70.638;2023-02-23T05:43:41;24.55;;;9.77;;
34060;SDS011;20336;-33.424;-70.638;2023-02-23T05:46:09;22.85;;;10.80;;
34060;SDS011;20336;-33.424;-70.638;2023-02-23T05:48:38;23.25;;;10.13;;
34060;SDS011;20336;-33.424;-70.638;2023-02-23T05:51:06;21.10;;;9.32;;
34060;SDS011;20336;-33.424;-70.638;2023-02-23T05:53:34;21.63;;;10.18;;
34060;SDS011;20336;-33.424;-70.638;2023-02-23T05:56:02;19.95;;;10.68;;
34060;SDS011;20336;-33.424;-70.638;2023-02-23T05:58:30;20.40;;;10.65;;
34060;SDS011;20336;-33.424;-70.638;2023-02-23T06:00:57;22.75;;;9.43;;
34060;SDS011;20336;-33.424;-70.638;2023-02-23T06:03:24;18.92;;;9.82;;
34060;SDS011;20336;-33.424;-70.638;2023-02-23T06:05:51;22.15;;;10.45;;
34060;SDS011;20336;-33.424;-70.638;2023-02-23T06:08:19;23.55;;;10.40;;
34060;SDS011;20336;-33.424;-70.638;2023-02-23T06:10:46;21.95;;;9.98;;
34060;SDS011;20336;-33.424;-70.638;2023-02-23T06:13:13;20.25;;;9.80;;
34060;SDS011;20336;-33.424;-70.638;2023-02-23T06:15:40;19.52;;;10.02;;
34060;SDS011;20336;-33.424;-70.638;2023-02-23T06:18:08;20.33;;;10.15;;
34060;SDS011;20336;-33.424;-70.638;2023-02-23T06:20:36;20.08;;;10.10;;
34060;SDS011;20336;-33.424;-70.638;2023-02-23T06:23:03;17.65;;;10.15;;
34060;SDS011;20336;-33.424;-70.638;2023-02-23T06:25:31;18.63;;;9.88;;
34060;SDS011;20336;-33.424;-70.638;2023-02-23T06:27:58;25.92;;;10.30;;
34060;SDS011;20336;-33.424;-70.638;2023-02-23T06:30:25;21.73;;;9.85;;
34060;SDS011;20336;-33.424;-70.638;2023-02-23T06:32:52;25.35;;;10.68;;
34060;SDS011;20336;-33.424;-70.638;2023-02-23T06:35:19;17.33;;;9.60;;
34060;SDS011;20336;-33.424;-70.638;2023-02-23T06:37:46;26.08;;;10.30;;
34060;SDS011;20336;-33.424;-70.638;2023-02-23T06:40:13;18.70;;;10.02;;
34060;SDS011;20336;-33.424;-70.638;2023-02-23T06:42:39;23.10;;;10.02;;
34060;SDS011;20336;-33.424;-70.638;2023-02-23T06:45:06;25.83;;;9.82;;
34060;SDS011;20336;-33.424;-70.638;2023-02-23T06:47:34;24.38;;;10.45;;
34060;SDS011;20336;-33.424;-70.638;2023-02-23T06:50:00;20.73;;;9.68;;
34060;SDS011;20336;-33.424;-70.638;2023-02-23T06:52:28;19.90;;;9.80;;
34060;SDS011;20336;-33.424;-70.638;2023-02-23T06:54:55;19.63;;;10.68;;
34060;SDS011;20336;-33.424;-70.638;2023-02-23T06:57:22;26.08;;;10.10;;
34060;SDS011;20336;-33.424;-70.638;2023-02-23T06:59:49;20.67;;;9.48;;
34060;SDS011;20336;-33.424;-70.638;2023-02-23T07:02:16;21.50;;;9.82;;
34060;SDS011;20336;-33.424;-70.638;2023-02-23T07:04:43;16.63;;;9.27;;
34060;SDS011;20336;-33.424;-70.638;2023-02-23T07:07:10;17.92;;;9.93;;
34060;SDS011;20336;-33.424;-70.638;2023-02-23T07:09:39;21.63;;;9.82;;
34060;SDS011;20336;-33.424;-70.638;2023-02-23T07:12:07;18.50;;;9.98;;
34060;SDS011;20336;-33.424;-70.638;2023-02-23T07:14:34;16.23;;;9.43;;
34060;SDS011;20336;-33.424;-70.638;2023-02-23T07:17:04;20.25;;;9.93;;
34060;SDS011;20336;-33.424;-70.638;2023-02-23T07:19:32;18.85;;;10.05;;
34060;SDS011;20336;-33.424;-70.638;2023-02-23T07:22:00;23.48;;;10.18;;
34060;SDS011;20336;-33.424;-70.638;2023-02-23T07:24:27;16.73;;;9.52;;
34060;SDS011;20336;-33.424;-70.638;2023-02-23T07:26:54;19.48;;;10.38;;
34060;SDS011;20336;-33.424;-70.638;2023-02-23T07:29:21;16.60;;;9.20;;
34060;SDS011;20336;-33.424;-70.638;2023-02-23T07:31:52;23.33;;;10.70;;
34060;SDS011;20336;-33.424;-70.638;2023-02-23T07:34:19;21.33;;;10.73;;
34060;SDS011;20336;-33.424;-70.638;2023-02-23T07:36:46;22.73;;;10.15;;
34060;SDS011;20336;-33.424;-70.638;2023-02-23T07:39:13;20.17;;;10.18;;
34060;SDS011;20336;-33.424;-70.638;2023-02-23T07:41:40;21.60;;;10.18;;
34060;SDS011;20336;-33.424;-70.638;2023-02-23T07:44:07;21.65;;;9.68;;
34060;SDS011;20336;-33.424;-70.638;2023-02-23T07:46:34;17.85;;;9.63;;
34060;SDS011;20336;-33.424;-70.638;2023-02-23T07:49:01;16.77;;;9.85;;
34060;SDS011;20336;-33.424;-70.638;2023-02-23T07:51:28;19.70;;;10.15;;
34060;SDS011;20336;-33.424;-70.638;2023-02-23T07:53:55;15.80;;;9.35;;
34060;SDS011;20336;-33.424;-70.638;2023-02-23T07:56:22;23.10;;;9.63;;
34060;SDS011;20336;-33.424;-70.638;2023-02-23T07:58:48;19.17;;;9.52;;
34060;SDS011;20336;-33.424;-70.638;2023-02-23T08:01:15;22.08;;;10.20;;
34060;SDS011;20336;-33.424;-70.638;2023-02-23T08:03:42;21.50;;;9.90;;
34060;SDS011;20336;-33.424;-70.638;2023-02-23T08:06:14;16.95;;;10.00;;
34060;SDS011;20336;-33.424;-70.638;2023-02-23T08:08:42;19.35;;;10.30;;
34060;SDS011;20336;-33.424;-70.638;2023-02-23T08:11:09;21.42;;;10.10;;
34060;SDS011;20336;-33.424;-70.638;2023-02-23T08:13:36;22.10;;;9.90;;
34060;SDS011;20336;-33.424;-70.638;2023-02-23T08:16:04;21.60;;;10.45;;
34060;SDS011;20336;-33.424;-70.638;2023-02-23T08:18:31;19.77;;;10.10;;
34060;SDS011;20336;-33.424;-70.638;2023-02-23T08:20:59;23.17;;;10.32;;
34060;SDS011;20336;-33.424;-70.638;2023-02-23T08:23:30;20.98;;;10.18;;
34060;SDS011;20336;-33.424;-70.638;2023-02-23T08:25:58;18.15;;;9.25;;
34060;SDS011;20336;-33.424;-70.638;2023-02-23T08:28:26;23.58;;;10.38;;
34060;SDS011;20336;-33.424;-70.638;2023-02-23T08:30:53;24.83;;;10.57;;
34060;SDS011;20336;-33.424;-70.638;2023-02-23T08:33:20;24.38;;;9.93;;
34060;SDS011;20336;-33.424;-70.638;2023-02-23T08:35:47;24.42;;;10.45;;
34060;SDS011;20336;-33.424;-70.638;2023-02-23T08:38:14;22.90;;;10.23;;
34060;SDS011;20336;-33.424;-70.638;2023-02-23T08:40:42;20.67;;;10.50;;
34060;SDS011;20336;-33.424;-70.638;2023-02-23T08:43:09;21.88;;;11.18;;
34060;SDS011;20336;-33.424;-70.638;2023-02-23T08:45:36;26.85;;;11.00;;
34060;SDS011;20336;-33.424;-70.638;2023-02-23T08:48:04;19.02;;;10.15;;
34060;SDS011;20336;-33.424;-70.638;2023-02-23T08:50:33;19.02;;;9.82;;
34060;SDS011;20336;-33.424;-70.638;2023-02-23T08:52:59;23.30;;;11.30;;
34060;SDS011;20336;-33.424;-70.638;2023-02-23T08:55:26;18.60;;;10.05;;
34060;SDS011;20336;-33.424;-70.638;2023-02-23T08:57:53;24.05;;;10.25;;
34060;SDS011;20336;-33.424;-70.638;2023-02-23T09:00:20;19.27;;;10.63;;
34060;SDS011;20336;-33.424;-70.638;2023-02-23T09:02:47;25.52;;;10.43;;
34060;SDS011;20336;-33.424;-70.638;2023-02-23T09:05:14;23.77;;;10.85;;
34060;SDS011;20336;-33.424;-70.638;2023-02-23T09:07:42;25.55;;;10.43;;
34060;SDS011;20336;-33.424;-70.638;2023-02-23T09:10:14;26.55;;;10.93;;
34060;SDS011;20336;-33.424;-70.638;2023-02-23T09:12:44;21.42;;;10.75;;
34060;SDS011;20336;-33.424;-70.638;2023-02-23T09:15:11;25.92;;;10.57;;
34060;SDS011;20336;-33.424;-70.638;2023-02-23T09:17:38;23.42;;;9.75;;
34060;SDS011;20336;-33.424;-70.638;2023-02-23T09:20:07;22.98;;;11.23;;
34060;SDS011;20336;-33.424;-70.638;2023-02-23T09:22:41;23.20;;;10.60;;
34060;SDS011;20336;-33.424;-70.638;2023-02-23T09:25:17;21.02;;;10.18;;
34060;SDS011;20336;-33.424;-70.638;2023-02-23T09:27:47;23.92;;;11.63;;
34060;SDS011;20336;-33.424;-70.638;2023-02-23T09:30:15;20.90;;;10.57;;
34060;SDS011;20336;-33.424;-70.638;2023-02-23T09:32:51;19.58;;;10.30;;
34060;SDS011;20336;-33.424;-70.638;2023-02-23T09:35:20;31.85;;;11.27;;
34060;SDS011;20336;-33.424;-70.638;2023-02-23T09:37:50;19.77;;;10.30;;
34060;SDS011;20336;-33.424;-70.638;2023-02-23T09:40:26;24.67;;;11.15;;
34060;SDS011;20336;-33.424;-70.638;2023-02-23T09:43:11;25.85;;;10.55;;
34060;SDS011;20336;-33.424;-70.638;2023-02-23T09:46:08;19.45;;;10.25;;
34060;SDS011;20336;-33.424;-70.638;2023-02-23T09:48:39;18.85;;;10.30;;
34060;SDS011;20336;-33.424;-70.638;2023-02-23T09:51:07;22.42;;;11.70;;
34060;SDS011;20336;-33.424;-70.638;2023-02-23T09:53:58;23.75;;;11.30;;
34060;SDS011;20336;-33.424;-70.638;2023-02-23T09:56:34;23.25;;;11.15;;
34060;SDS011;20336;-33.424;-70.638;2023-02-23T09:59:12;24.77;;;10.18;;
34060;SDS011;20336;-33.424;-70.638;2023-02-23T10:18:10;26.45;;;11.32;;
34060;SDS011;20336;-33.424;-70.638;2023-02-23T10:24:04;27.10;;;11.45;;
34060;SDS011;20336;-33.424;-70.638;2023-02-23T10:26:50;33.80;;;12.30;;
34060;SDS011;20336;-33.424;-70.638;2023-02-23T10:32:33;27.67;;;12.07;;
34060;SDS011;20336;-33.424;-70.638;2023-02-23T10:35:12;26.13;;;11.77;;
34060;SDS011;20336;-33.424;-70.638;2023-02-23T10:37:45;23.50;;;10.68;;
34060;SDS011;20336;-33.424;-70.638;2023-02-23T10:40:14;23.65;;;11.70;;
34060;SDS011;20336;-33.424;-70.638;2023-02-23T10:42:45;63.88;;;13.95;;
34060;SDS011;20336;-33.424;-70.638;2023-02-23T10:45:16;34.63;;;11.48;;
34060;SDS011;20336;-33.424;-70.638;2023-02-23T10:48:31;27.67;;;11.35;;
34060;SDS011;20336;-33.424;-70.638;2023-02-23T10:50:45;23.45;;;11.38;;
34060;SDS011;20336;-33.424;-70.638;2023-02-23T10:53:16;31.77;;;11.93;;
34060;SDS011;20336;-33.424;-70.638;2023-02-23T10:56:09;21.63;;;11.18;;
34060;SDS011;20336;-33.424;-70.638;2023-02-23T10:58:43;25.45;;;11.77;;
34060;SDS011;20336;-33.424;-70.638;2023-02-23T11:01:15;23.85;;;11.43;;
34060;SDS011;20336;-33.424;-70.638;2023-02-23T11:06:47;29.63;;;11.60;;
34060;SDS011;20336;-33.424;-70.638;2023-02-23T11:09:17;38.78;;;11.63;;
34060;SDS011;20336;-33.424;-70.638;2023-02-23T11:11:59;25.92;;;11.70;;
34060;SDS011;20336;-33.424;-70.638;2023-02-23T11:14:29;27.33;;;11.18;;
34060;SDS011;20336;-33.424;-70.638;2023-02-23T11:16:57;27.23;;;11.50;;
34060;SDS011;20336;-33.424;-70.638;2023-02-23T11:19:34;27.80;;;11.57;;
34060;SDS011;20336;-33.424;-70.638;2023-02-23T11:22:03;30.40;;;12.23;;
34060;SDS011;20336;-33.424;-70.638;2023-02-23T11:24:34;22.65;;;11.48;;
34060;SDS011;20336;-33.424;-70.638;2023-02-23T11:27:05;23.67;;;11.57;;
34060;SDS011;20336;-33.424;-70.638;2023-02-23T11:29:44;24.77;;;11.65;;
34060;SDS011;20336;-33.424;-70.638;2023-02-23T11:32:14;27.60;;;12.45;;
34060;SDS011;20336;-33.424;-70.638;2023-02-23T11:34:43;27.13;;;12.07;;
34060;SDS011;20336;-33.424;-70.638;2023-02-23T11:39:55;25.38;;;11.82;;
34060;SDS011;20336;-33.424;-70.638;2023-02-23T11:42:29;24.77;;;11.30;;
34060;SDS011;20336;-33.424;-70.638;2023-02-23T11:45:02;27.40;;;12.45;;
34060;SDS011;20336;-33.424;-70.638;2023-02-23T11:47:32;24.63;;;11.20;;
34060;SDS011;20336;-33.424;-70.638;2023-02-23T11:50:05;21.20;;;11.10;;
34060;SDS011;20336;-33.424;-70.638;2023-02-23T11:52:32;21.27;;;10.10;;
34060;SDS011;20336;-33.424;-70.638;2023-02-23T11:55:02;23.25;;;11.50;;
34060;SDS011;20336;-33.424;-70.638;2023-02-23T11:57:35;26.15;;;12.13;;
34060;SDS011;20336;-33.424;-70.638;2023-02-23T12:00:12;26.58;;;11.90;;
34060;SDS011;20336;-33.424;-70.638;2023-02-23T12:02:58;25.55;;;11.65;;
34060;SDS011;20336;-33.424;-70.638;2023-02-23T12:05:30;28.10;;;12.48;;
34060;SDS011;20336;-33.424;-70.638;2023-02-23T12:08:32;25.73;;;11.35;;
34060;SDS011;20336;-33.424;-70.638;2023-02-23T12:11:05;24.23;;;10.15;;
34060;SDS011;20336;-33.424;-70.638;2023-02-23T12:13:50;22.55;;;10.95;;
34060;SDS011;20336;-33.424;-70.638;2023-02-23T12:16:40;26.35;;;12.32;;
34060;SDS011;20336;-33.424;-70.638;2023-02-23T12:19:25;35.65;;;12.75;;
34060;SDS011;20336;-33.424;-70.638;2023-02-23T12:22:28;31.55;;;12.05;;
34060;SDS011;20336;-33.424;-70.638;2023-02-23T12:25:03;28.05;;;11.32;;
34060;SDS011;20336;-33.424;-70.638;2023-02-23T12:27:50;32.13;;;10.85;;
34060;SDS011;20336;-33.424;-70.638;2023-02-23T12:36:11;32.63;;;11.88;;
34060;SDS011;20336;-33.424;-70.638;2023-02-23T12:39:07;30.35;;;11.93;;
34060;SDS011;20336;-33.424;-70.638;2023-02-23T12:44:51;41.92;;;12.82;;
34060;SDS011;20336;-33.424;-70.638;2023-02-23T12:50:26;27.02;;;11.70;;
34060;SDS011;20336;-33.424;-70.638;2023-02-23T12:56:15;22.20;;;10.95;;
34060;SDS011;20336;-33.424;-70.638;2023-02-23T13:04:25;22.15;;;10.23;;
34060;SDS011;20336;-33.424;-70.638;2023-02-23T13:07:11;25.98;;;10.52;;
34060;SDS011;20336;-33.424;-70.638;2023-02-23T13:21:20;46.88;;;13.85;;
34060;SDS011;20336;-33.424;-70.638;2023-02-23T13:24:07;31.15;;;12.75;;
34060;SDS011;20336;-33.424;-70.638;2023-02-23T13:32:15;33.90;;;14.45;;
34060;SDS011;20336;-33.424;-70.638;2023-02-23T13:37:26;34.42;;;14.18;;
34060;SDS011;20336;-33.424;-70.638;2023-02-23T13:45:59;29.27;;;12.82;;
34060;SDS011;20336;-33.424;-70.638;2023-02-23T13:56:55;25.48;;;12.63;;
34060;SDS011;20336;-33.424;-70.638;2023-02-23T13:59:27;25.63;;;12.55;;
34060;SDS011;20336;-33.424;-70.638;2023-02-23T14:02:01;36.08;;;14.05;;
34060;SDS011;20336;-33.424;-70.638;2023-02-23T14:04:45;26.25;;;12.80;;
34060;SDS011;20336;-33.424;-70.638;2023-02-23T14:07:17;30.98;;;14.45;;
34060;SDS011;20336;-33.424;-70.638;2023-02-23T14:10:03;37.95;;;13.13;;
34060;SDS011;20336;-33.424;-70.638;2023-02-23T14:13:05;35.47;;;13.25;;
34060;SDS011;20336;-33.424;-70.638;2023-02-23T14:31:51;25.77;;;12.88;;
34060;SDS011;20336;-33.424;-70.638;2023-02-23T14:37:33;29.40;;;13.02;;
34060;SDS011;20336;-33.424;-70.638;2023-02-23T14:40:10;26.17;;;12.88;;
34060;SDS011;20336;-33.424;-70.638;2023-02-23T14:42:40;30.00;;;12.93;;
34060;SDS011;20336;-33.424;-70.638;2023-02-23T14:45:35;34.60;;;12.88;;
34060;SDS011;20336;-33.424;-70.638;2023-02-23T14:48:06;41.28;;;13.95;;
34060;SDS011;20336;-33.424;-70.638;2023-02-23T14:50:41;30.08;;;14.23;;
34060;SDS011;20336;-33.424;-70.638;2023-02-23T14:53:19;32.50;;;12.73;;
34060;SDS011;20336;-33.424;-70.638;2023-02-23T14:55:48;28.67;;;12.45;;
34060;SDS011;20336;-33.424;-70.638;2023-02-23T14:58:35;24.45;;;11.57;;
34060;SDS011;20336;-33.424;-70.638;2023-02-23T15:01:01;36.08;;;12.18;;
34060;SDS011;20336;-33.424;-70.638;2023-02-23T15:03:28;35.20;;;12.85;;
34060;SDS011;20336;-33.424;-70.638;2023-02-23T15:05:56;37.25;;;13.57;;
34060;SDS011;20336;-33.424;-70.638;2023-02-23T15:08:25;28.65;;;12.70;;
34060;SDS011;20336;-33.424;-70.638;2023-02-23T15:11:02;34.00;;;13.18;;
34060;SDS011;20336;-33.424;-70.638;2023-02-23T15:13:34;32.97;;;13.00;;
34060;SDS011;20336;-33.424;-70.638;2023-02-23T15:16:30;37.72;;;14.13;;
34060;SDS011;20336;-33.424;-70.638;2023-02-23T15:18:59;28.17;;;13.48;;
34060;SDS011;20336;-33.424;-70.638;2023-02-23T15:21:28;30.20;;;13.13;;
34060;SDS011;20336;-33.424;-70.638;2023-02-23T15:24:11;31.90;;;13.18;;
34060;SDS011;20336;-33.424;-70.638;2023-02-23T15:26:45;34.65;;;13.70;;
34060;SDS011;20336;-33.424;-70.638;2023-02-23T15:29:13;38.47;;;14.65;;
34060;SDS011;20336;-33.424;-70.638;2023-02-23T15:31:47;29.85;;;13.70;;
34060;SDS011;20336;-33.424;-70.638;2023-02-23T15:34:26;40.72;;;14.52;;
34060;SDS011;20336;-33.424;-70.638;2023-02-23T15:37:02;33.58;;;14.63;;
34060;SDS011;20336;-33.424;-70.638;2023-02-23T15:39:33;31.98;;;14.10;;
34060;SDS011;20336;-33.424;-70.638;2023-02-23T15:42:04;36.25;;;14.30;;
34060;SDS011;20336;-33.424;-70.638;2023-02-23T15:44:35;36.42;;;14.40;;
34060;SDS011;20336;-33.424;-70.638;2023-02-23T15:47:03;35.67;;;13.85;;
34060;SDS011;20336;-33.424;-70.638;2023-02-23T15:49:35;38.33;;;15.65;;
34060;SDS011;20336;-33.424;-70.638;2023-02-23T15:52:17;33.15;;;14.30;;
34060;SDS011;20336;-33.424;-70.638;2023-02-23T15:55:03;36.65;;;14.27;;
34060;SDS011;20336;-33.424;-70.638;2023-02-23T16:00:20;34.55;;;14.75;;
34060;SDS011;20336;-33.424;-70.638;2023-02-23T16:02:57;30.73;;;14.25;;
34060;SDS011;20336;-33.424;-70.638;2023-02-23T16:05:26;33.47;;;13.27;;
34060;SDS011;20336;-33.424;-70.638;2023-02-23T16:08:17;31.95;;;13.95;;
34060;SDS011;20336;-33.424;-70.638;2023-02-23T16:10:48;32.33;;;13.77;;
34060;SDS011;20336;-33.424;-70.638;2023-02-23T16:13:16;37.60;;;13.68;;
34060;SDS011;20336;-33.424;-70.638;2023-02-23T16:15:46;37.80;;;13.80;;
34060;SDS011;20336;-33.424;-70.638;2023-02-23T16:18:15;30.48;;;13.60;;
34060;SDS011;20336;-33.424;-70.638;2023-02-23T16:20:46;31.48;;;13.55;;
34060;SDS011;20336;-33.424;-70.638;2023-02-23T16:23:18;26.38;;;12.65;;
34060;SDS011;20336;-33.424;-70.638;2023-02-23T16:25:58;27.55;;;11.98;;
34060;SDS011;20336;-33.424;-70.638;2023-02-23T16:28:31;31.88;;;12.40;;
34060;SDS011;20336;-33.424;-70.638;2023-02-23T16:31:01;26.67;;;12.15;;
34060;SDS011;20336;-33.424;-70.638;2023-02-23T16:33:39;36.20;;;12.32;;
34060;SDS011;20336;-33.424;-70.638;2023-02-23T16:36:20;31.30;;;11.45;;
34060;SDS011;20336;-33.424;-70.638;2023-02-23T16:39:00;23.13;;;10.38;;
34060;SDS011;20336;-33.424;-70.638;2023-02-23T16:41:31;21.98;;;10.18;;
34060;SDS011;20336;-33.424;-70.638;2023-02-23T16:44:00;23.85;;;10.45;;
34060;SDS011;20336;-33.424;-70.638;2023-02-23T16:46:30;22.83;;;11.50;;
34060;SDS011;20336;-33.424;-70.638;2023-02-23T16:49:13;34.55;;;11.02;;
34060;SDS011;20336;-33.424;-70.638;2023-02-23T16:51:40;28.13;;;10.35;;